Time;durP1;ratioP1;P1;durP2;ratioP2;P2;SDS_P1;SDS_P2;PMS_P1;PMS_P2;Temp;Humidity;BMP_temperature;BMP_pressure;BME280_temperature;BME280_humidity;BME280_pressure;Samples;Min_cycle;Max_cycle;Signal;HPM_P1;HPM_P2
2022/08/11 00:01:27;;;;;;;1.92;0.60;;;;;;;23.27;58.89;101878.91;7378617;19;20018;-65
2022/08/11 00:03:55;;;;;;;6.50;0.70;;;;;;;23.26;58.72;101876.47;7379753;19;20950;-66
2022/08/11 00:06:27;;;;;;;4.25;1.50;;;;;;;23.23;59.00;101872.31;7383046;19;20018;-66
2022/08/11 00:08:56;;;;;;;1.67;0.93;;;;;;;23.21;58.91;101877.06;7383511;19;20394;-65
2022/08/11 00:11:51;;;;;;;5.45;1.00;;;;;;;23.18;58.98;101869.44;7384145;19;20022;-66
2022/08/11 00:14:33;;;;;;;2.90;0.60;;;;;;;23.12;59.25;101881.00;7383248;19;20074;-63
2022/08/11 00:17:07;;;;;;;3.28;0.55;;;;;;;23.07;59.55;101877.28;7381394;19;20378;-62
2022/08/11 00:19:40;;;;;;;3.43;1.20;;;;;;;23.00;59.42;101882.69;7377771;19;20014;-63
2022/08/11 00:22:38;;;;;;;2.97;0.50;;;;;;;22.90;59.77;101872.38;7380880;19;20294;-63
2022/08/11 00:25:12;;;;;;;4.88;0.70;;;;;;;22.85;60.38;101879.41;7383140;19;20727;-64
2022/08/11 00:27:40;;;;;;;5.32;0.70;;;;;;;22.81;60.41;101878.16;7381469;19;20037;-63
2022/08/11 00:30:09;;;;;;;4.20;0.63;;;;;;;22.77;60.75;101884.97;7384034;19;20037;-63
2022/08/11 00:32:42;;;;;;;1.95;1.02;;;;;;;22.74;60.71;101888.09;7383602;19;20436;-64
2022/08/11 00:35:16;;;;;;;1.42;0.60;;;;;;;22.70;61.14;101878.75;7381077;19;20022;-65
2022/08/11 00:38:05;;;;;;;2.10;0.65;;;;;;;22.67;61.24;101881.84;7383022;19;20104;-65
2022/08/11 00:41:11;;;;;;;2.50;0.60;;;;;;;22.66;61.18;101875.66;7382965;19;20011;-65
2022/08/11 00:43:47;;;;;;;6.82;0.95;;;;;;;22.63;61.84;101876.06;7381464;19;20082;-65
2022/08/11 00:46:45;;;;;;;2.75;0.80;;;;;;;22.63;61.72;101884.13;7381374;19;20126;-65
2022/08/11 00:49:29;;;;;;;2.25;0.60;;;;;;;22.60;61.83;101874.59;7377479;19;20015;-66
2022/08/11 00:52:16;;;;;;;4.63;1.27;;;;;;;22.58;61.87;101878.53;7380846;19;20036;-67
2022/08/11 00:54:55;;;;;;;3.90;0.77;;;;;;;22.56;62.08;101870.69;7380194;19;20019;-62
2022/08/11 00:57:54;;;;;;;5.03;1.00;;;;;;;22.56;62.16;101862.66;7383699;19;20010;-62
2022/08/11 01:00:25;;;;;;;4.03;0.98;;;;;;;22.54;61.98;101858.53;7377802;19;20410;-62
2022/08/11 01:03:17;;;;;;;4.65;0.80;;;;;;;22.52;62.62;101861.41;7379940;19;20383;-62
2022/08/11 01:06:25;;;;;;;3.05;0.70;;;;;;;22.52;62.47;101861.41;7378150;19;20018;-64
2022/08/11 01:09:28;;;;;;;6.53;0.80;;;;;;;22.49;62.82;101861.00;7375756;19;20028;-65
2022/08/11 01:12:36;;;;;;;4.85;0.70;;;;;;;22.47;62.59;101858.53;7382740;19;20021;-65
2022/08/11 01:16:03;;;;;;;2.05;0.77;;;;;;;22.44;62.25;101856.25;7374717;19;20034;-65
2022/08/11 01:19:11;;;;;;;4.45;0.82;;;;;;;22.41;63.42;101850.47;7375790;19;20019;-62
2022/08/11 01:22:02;;;;;;;2.30;0.63;;;;;;;22.40;62.73;101851.50;7379606;19;20007;-63
2022/08/11 01:24:41;;;;;;;6.97;0.95;;;;;;;22.39;62.76;101845.31;7380261;19;20018;-62
2022/08/11 01:27:26;;;;;;;2.25;0.75;;;;;;;22.38;62.32;101845.50;7380203;19;20576;-63
2022/08/11 01:30:22;;;;;;;3.08;0.80;;;;;;;22.37;62.46;101842.00;7377251;19;20006;-64
2022/08/11 01:33:34;;;;;;;2.38;0.73;;;;;;;22.35;62.83;101844.06;7370902;19;20360;-63
2022/08/11 01:36:10;;;;;;;4.57;0.80;;;;;;;22.33;62.57;101840.78;7375490;19;20386;-63
2022/08/11 01:38:58;;;;;;;2.13;0.75;;;;;;;22.32;62.34;101841.78;7377363;19;20061;-63
2022/08/11 01:44:44;;;;;;;2.70;0.80;;;;;;;22.24;62.75;101833.13;7385044;19;20006;-63
2022/08/11 01:50:21;;;;;;;3.50;0.90;;;;;;;22.17;62.76;101830.44;7380247;19;20293;-63
2022/08/11 01:53:00;;;;;;;4.10;0.90;;;;;;;22.12;63.62;101828.38;7384907;19;20027;-65
2022/08/11 01:55:49;;;;;;;5.53;1.02;;;;;;;22.09;63.73;101827.97;7384016;19;20010;-64
2022/08/11 01:58:25;;;;;;;2.70;0.80;;;;;;;22.04;63.53;101836.63;7383306;19;20022;-64
2022/08/11 02:01:39;;;;;;;2.30;0.90;;;;;;;22.02;63.89;101825.25;7384837;19;20561;-63
2022/08/11 02:04:32;;;;;;;2.58;0.80;;;;;;;21.99;64.00;101822.16;7378691;19;20070;-63
2022/08/11 02:07:16;;;;;;;4.05;1.13;;;;;;;21.99;63.66;101822.16;7384158;19;20011;-63
2022/08/11 02:11:29;;;;;;;1.83;0.80;;;;;;;21.99;64.45;101822.97;7386785;19;20017;-64
2022/08/11 02:12:59;;;;;;;1.73;0.75;;;;;;;21.99;63.72;101820.28;7386654;19;20546;-63
2022/08/11 02:15:43;;;;;;;1.52;0.80;;;;;;;21.98;64.21;101818.66;7385296;19;20432;-63
2022/08/11 02:18:22;;;;;;;3.10;0.90;;;;;;;21.99;63.84;101819.47;7386454;19;20025;-63
2022/08/11 02:24:02;;;;;;;2.78;0.90;;;;;;;21.97;64.41;101826.88;7384818;19;20446;-63
2022/08/11 02:26:48;;;;;;;4.55;1.10;;;;;;;21.95;64.37;101821.72;7382315;19;20018;-66
2022/08/11 02:29:23;;;;;;;2.60;0.90;;;;;;;21.96;64.42;101818.03;7385878;19;21720;-66
2022/08/11 02:35:14;;;;;;;3.45;1.10;;;;;;;21.90;64.61;101816.13;7382357;19;20011;-65
2022/08/11 02:37:55;;;;;;;3.83;1.00;;;;;;;21.90;64.75;101812.59;7385090;19;20025;-65
2022/08/11 02:40:55;;;;;;;2.83;1.00;;;;;;;21.88;65.09;101818.19;7384639;19;20154;-66
2022/08/11 02:43:35;;;;;;;1.77;0.70;;;;;;;21.87;64.78;101816.53;7387016;19;20011;-67
2022/08/11 02:46:20;;;;;;;2.88;0.90;;;;;;;21.87;65.09;101808.50;7387333;19;20379;-63
2022/08/11 02:52:03;;;;;;;3.67;0.85;;;;;;;21.84;64.95;101811.56;7384971;19;20451;-61
2022/08/11 02:54:49;;;;;;;1.25;0.65;;;;;;;21.79;65.28;101816.69;7385796;19;20501;-62
2022/08/11 02:57:42;;;;;;;3.00;0.70;;;;;;;21.75;65.61;101815.47;7386521;19;20585;-62
2022/08/11 03:00:15;;;;;;;4.93;1.25;;;;;;;21.68;65.58;101812.78;7386232;19;20010;-64
2022/08/11 03:03:20;;;;;;;3.15;0.90;;;;;;;21.65;65.57;101807.81;7355042;19;20018;-63
2022/08/11 03:06:01;;;;;;;4.40;1.02;;;;;;;21.59;66.03;101813.97;7378582;19;20394;-63
2022/08/11 03:08:47;;;;;;;6.07;1.05;;;;;;;21.56;66.38;101810.88;7384702;19;20085;-62
2022/08/11 03:17:14;;;;;;;3.92;1.00;;;;;;;21.37;66.81;101809.78;7384751;19;20022;-63
2022/08/11 03:20:11;;;;;;;1.80;1.00;;;;;;;21.30;67.00;101807.06;7382491;19;20018;-63
2022/08/11 03:23:01;;;;;;;3.58;1.40;;;;;;;21.24;67.50;101807.84;7385587;19;20018;-63
2022/08/11 03:25:57;;;;;;;2.53;1.20;;;;;;;21.22;67.45;101809.91;7383287;19;20018;-62
2022/08/11 03:28:40;;;;;;;6.85;1.35;;;;;;;21.21;68.02;101810.94;7385928;19;20039;-63
2022/08/11 03:31:29;;;;;;;2.75;1.10;;;;;;;21.18;67.93;101805.16;7386220;19;20007;-61
2022/08/11 03:34:20;;;;;;;5.82;1.30;;;;;;;21.12;67.91;101811.25;7382128;19;20026;-64
2022/08/11 03:43:28;;;;;;;3.78;1.20;;;;;;;21.05;68.48;101803.19;7383848;19;20090;-63
2022/08/11 03:46:44;;;;;;;3.35;1.35;;;;;;;21.06;69.16;101804.00;7384959;19;20022;-62
2022/08/11 03:49:37;;;;;;;2.97;1.50;;;;;;;21.05;68.95;101807.72;7375282;19;20048;-62
2022/08/11 03:52:18;;;;;;;2.22;1.63;;;;;;;21.08;68.82;101792.06;7380699;19;20574;-62
2022/08/11 03:55:11;;;;;;;5.78;1.60;;;;;;;21.09;68.77;101798.25;7382616;19;20494;-63
2022/08/11 03:58:13;;;;;;;4.93;1.73;;;;;;;21.08;69.20;101792.06;7384348;19;20010;-62
2022/08/11 04:01:11;;;;;;;4.97;1.55;;;;;;;21.10;69.34;101794.56;7385395;19;20475;-63
2022/08/11 04:03:47;;;;;;;3.70;1.67;;;;;;;21.08;69.52;101791.28;7375538;19;20550;-61
2022/08/11 04:06:36;;;;;;;5.57;1.50;;;;;;;21.06;69.28;101785.28;7383822;19;20022;-61
2022/08/11 04:09:28;;;;;;;3.25;1.40;;;;;;;21.08;69.66;101788.59;7383689;19;20029;-62
2022/08/11 04:12:07;;;;;;;2.35;1.20;;;;;;;21.07;69.75;101789.63;7384204;19;20079;-62
2022/08/11 04:18:26;;;;;;;5.28;1.60;;;;;;;21.09;70.00;101780.34;7384024;19;20140;-62
2022/08/11 04:21:41;;;;;;;3.75;1.30;;;;;;;21.08;69.59;101772.53;7380119;19;20018;-64
2022/08/11 04:24:52;;;;;;;3.88;1.50;;;;;;;21.07;69.69;101770.88;7378368;19;20191;-62
2022/08/11 04:27:25;;;;;;;7.63;2.08;;;;;;;21.06;70.02;101779.91;7383306;19;20032;-65
2022/08/11 04:30:13;;;;;;;4.47;2.00;;;;;;;21.06;70.24;101777.25;7383361;19;20066;-65
2022/08/11 04:32:57;;;;;;;3.22;1.67;;;;;;;21.03;70.23;101777.66;7381913;19;20018;-65
2022/08/11 04:35:47;;;;;;;4.13;2.22;;;;;;;21.00;70.33;101767.31;7382408;19;20117;-65
2022/08/11 04:38:54;;;;;;;4.50;1.95;;;;;;;20.93;71.13;101778.00;7380057;19;20028;-65
2022/08/11 04:45:29;;;;;;;4.60;2.67;;;;;;;20.84;71.71;101774.66;7384231;19;20006;-69
2022/08/11 05:01:40;;;;;;;5.38;3.22;;;;;;;20.78;72.48;101766.56;7383392;19;20529;-65
2022/08/11 05:08:18;;;;;;;7.78;3.28;;;;;;;20.74;73.12;101774.19;7377865;19;20434;-65
2022/08/11 05:11:14;;;;;;;6.10;4.20;;;;;;;20.75;72.86;101769.66;7383300;19;20023;-63
2022/08/11 05:37:37;;;;;;;5.57;4.05;;;;;;;20.72;73.74;101792.28;7389442;19;20876;-65
2022/08/11 05:57:21;;;;;;;21.48;6.22;;;;;;;20.83;74.96;101798.91;7388815;19;20034;-65
2022/08/11 06:00:09;;;;;;;8.35;5.03;;;;;;;20.84;74.85;101801.41;7389165;19;20014;-62
2022/08/11 06:02:45;;;;;;;11.13;5.50;;;;;;;20.86;74.79;101799.38;7388468;19;20077;-63
2022/08/11 06:05:13;;;;;;;9.27;5.65;;;;;;;20.89;75.17;101787.44;7384924;19;20387;-63
2022/08/11 06:07:40;;;;;;;7.45;5.88;;;;;;;20.90;74.60;101797.94;7387816;19;20090;-63
2022/08/11 06:10:25;;;;;;;12.82;5.72;;;;;;;20.85;75.27;101796.88;7389656;19;20015;-62
2022/08/11 06:12:54;;;;;;;7.85;5.53;;;;;;;20.81;75.42;101795.63;7388549;19;20014;-63
2022/08/11 06:15:24;;;;;;;11.85;7.15;;;;;;;20.82;75.80;101799.97;7390419;19;20342;-63
2022/08/11 06:17:52;;;;;;;9.52;5.80;;;;;;;20.79;75.58;101803.84;7387823;19;20035;-62
2022/08/11 06:20:21;;;;;;;7.28;5.35;;;;;;;20.79;75.47;101797.66;7384212;19;20094;-65
2022/08/11 06:22:57;;;;;;;8.50;5.53;;;;;;;20.81;75.67;101807.16;7387902;19;19998;-63
2022/08/11 06:25:34;;;;;;;8.10;6.10;;;;;;;20.81;76.25;101801.81;7384623;19;20020;-65
2022/08/11 06:28:07;;;;;;;14.27;5.95;;;;;;;20.84;76.11;101796.06;7387357;19;20014;-64
2022/08/11 06:30:42;;;;;;;;;;;;;;;20.89;76.32;101801.66;7390782;19;20014;-64
2022/08/11 06:33:17;;;;;;;9.32;6.20;;;;;;;20.89;76.43;101795.47;7388546;19;19919;-62
2022/08/11 06:35:47;;;;;;;10.43;6.25;;;;;;;20.93;76.30;101794.88;7384743;19;20081;-66
2022/08/11 06:38:38;;;;;;;9.65;6.60;;;;;;;20.94;76.69;101795.69;7387482;19;20026;-67
2022/08/11 06:41:29;;;;;;;11.25;7.10;;;;;;;20.97;76.98;101802.53;7388826;19;20006;-66
2022/08/11 06:44:13;;;;;;;12.10;6.40;;;;;;;20.98;76.90;101785.44;7387521;19;20487;-65
2022/08/11 06:46:49;;;;;;;9.73;5.45;;;;;;;21.02;76.97;101787.53;7387822;19;20892;-67
2022/08/11 06:52:12;;;;;;;13.30;6.30;;;;;;;21.10;76.97;101789.19;7387482;19;20020;-67
2022/08/11 07:00:26;;;;;;;11.65;6.60;;;;;;;21.16;77.13;101785.78;7386755;19;20491;-65
2022/08/11 07:01:26;;;;;;;9.85;7.63;;;;;;;21.26;77.29;101784.38;7387586;19;20010;-66
2022/08/11 07:04:03;;;;;;;11.05;6.55;;;;;;;21.32;77.48;101788.94;7384945;19;20105;-66
2022/08/11 07:16:17;;;;;;;11.88;7.65;;;;;;;21.54;78.15;101794.16;7387109;19;20363;-66
2022/08/11 07:30:33;;;;;;;12.73;7.63;;;;;;;21.79;77.88;101800.63;7385416;19;20022;-67
2022/08/11 07:33:02;;;;;;;21.92;7.80;;;;;;;21.83;77.98;101793.84;7386462;19;20107;-62
2022/08/11 07:35:34;;;;;;;19.17;7.55;;;;;;;21.86;77.89;101788.06;7381897;19;20029;-62
2022/08/11 07:38:14;;;;;;;15.57;8.47;;;;;;;21.92;77.78;101799.84;7384611;19;20086;-63
2022/08/11 07:40:49;;;;;;;14.05;8.40;;;;;;;21.97;78.06;101790.19;7383505;19;20014;-65
2022/08/11 07:43:16;;;;;;;10.55;7.60;;;;;;;22.04;77.98;101795.56;7384826;19;20022;-65
2022/08/11 07:54:06;;;;;;;15.38;7.78;;;;;;;22.33;76.76;101797.84;7382273;19;20504;-65
2022/08/11 07:56:44;;;;;;;12.73;6.72;;;;;;;22.61;76.86;101811.88;7385068;19;20348;-65
2022/08/11 08:19:15;;;;;;;12.70;6.75;;;;;;;23.09;73.96;101805.41;7381290;19;20089;-66
2022/08/11 08:21:44;;;;;;;17.17;6.05;;;;;;;23.09;73.59;101800.03;7385428;19;20419;-66
2022/08/11 08:24:11;;;;;;;14.02;7.63;;;;;;;23.10;74.42;101802.53;7383987;19;20361;-65
2022/08/11 08:26:59;;;;;;;11.68;6.30;;;;;;;23.12;74.83;101813.03;7384847;19;20014;-65
2022/08/11 08:32:17;;;;;;;13.02;4.90;;;;;;;23.16;72.52;101812.41;7385071;19;20015;-65
2022/08/11 08:34:45;;;;;;;12.48;6.20;;;;;;;23.15;72.32;101805.41;7380550;19;20034;-66
2022/08/11 08:37:13;;;;;;;13.70;6.22;;;;;;;23.16;73.11;101804.34;7384764;19;20015;-65
2022/08/11 08:40:00;;;;;;;17.67;5.93;;;;;;;23.22;72.75;101805.34;7383459;19;20014;-65
2022/08/11 08:42:30;;;;;;;15.57;5.90;;;;;;;23.26;71.74;101798.56;7382533;19;20027;-65
2022/08/11 08:45:08;;;;;;;12.38;5.13;;;;;;;23.28;70.94;101802.66;7385146;19;20014;-66
2022/08/11 08:47:41;;;;;;;10.23;4.90;;;;;;;23.34;70.75;101806.34;7381859;19;21021;-65
2022/08/11 08:50:12;;;;;;;11.18;5.32;;;;;;;23.39;71.30;101810.06;7379574;19;20518;-64
2022/08/11 08:52:51;;;;;;;12.70;4.90;;;;;;;23.47;70.06;101795.56;7384224;19;20015;-64
2022/08/11 08:55:19;;;;;;;11.65;4.55;;;;;;;23.51;70.16;101796.81;7383863;19;20080;-65
2022/08/11 08:57:49;;;;;;;10.40;4.68;;;;;;;23.55;69.98;101797.22;7386104;19;20553;-65
2022/08/11 09:00:17;;;;;;;11.65;4.45;;;;;;;23.60;69.54;101800.91;7382953;19;20007;-66
2022/08/11 09:02:49;;;;;;;9.07;4.65;;;;;;;23.64;69.64;101790.53;7383814;19;20022;-66
2022/08/11 09:05:18;;;;;;;10.57;5.00;;;;;;;23.71;69.55;101796.72;7379478;19;20556;-67
2022/08/11 09:07:49;;;;;;;18.63;6.10;;;;;;;23.76;69.37;101794.19;7382426;19;20018;-62
2022/08/11 09:10:18;;;;;;;10.68;5.45;;;;;;;23.84;68.79;101784.00;7381362;19;20017;-63
2022/08/11 09:12:46;;;;;;;9.68;4.47;;;;;;;23.90;69.42;101776.13;7381117;19;20233;-63
2022/08/11 09:15:17;;;;;;;9.15;4.10;;;;;;;23.97;68.83;101777.72;7384972;19;20467;-63
2022/08/11 09:18:02;;;;;;;8.82;4.50;;;;;;;24.09;66.40;101784.03;7382459;19;20031;-63
2022/08/11 09:20:34;;;;;;;8.02;4.30;;;;;;;24.19;66.57;101779.03;7380283;19;20010;-63
2022/08/11 09:28:57;;;;;;;11.05;3.75;;;;;;;24.63;64.07;101780.72;7380162;19;20383;-61
2022/08/11 09:31:25;;;;;;;6.00;2.78;;;;;;;24.77;64.44;101788.66;7383531;19;20014;-62
2022/08/11 09:33:54;;;;;;;9.30;3.15;;;;;;;24.88;62.76;101778.00;7379613;19;20188;-63
2022/08/11 09:42:00;;;;;;;5.10;2.45;;;;;;;25.29;61.86;101773.78;7381999;19;20014;-63
2022/08/11 09:44:47;;;;;;;3.67;1.88;;;;;;;25.41;61.40;101769.25;7382646;19;20328;-66
2022/08/11 09:47:27;;;;;;;7.22;2.38;;;;;;;25.53;62.42;101770.97;7379454;19;20079;-64
2022/08/11 09:49:59;;;;;;;5.53;2.03;;;;;;;25.61;61.53;101777.13;7378199;19;20066;-64
2022/08/11 09:52:39;;;;;;;5.28;1.90;;;;;;;25.64;58.13;101772.09;7381265;19;20411;-64
2022/08/11 09:55:26;;;;;;;5.38;1.63;;;;;;;25.72;57.49;101768.25;7379671;19;20125;-64
2022/08/11 09:58:13;;;;;;;9.35;1.27;;;;;;;25.80;58.05;101763.34;7381044;19;20018;-64
2022/08/11 10:01:01;;;;;;;4.53;1.02;;;;;;;25.89;56.52;101759.28;7385279;19;20018;-65
2022/08/11 10:03:31;;;;;;;8.30;2.15;;;;;;;26.00;56.86;101748.75;7387099;19;20034;-64
2022/08/11 10:09:05;;;;;;;10.55;1.38;;;;;;;26.21;55.80;101757.06;7387009;19;20400;-62
2022/08/11 10:11:35;;;;;;;5.15;1.60;;;;;;;26.28;55.97;101752.44;7388988;19;20046;-62
2022/08/11 10:17:05;;;;;;;6.10;1.55;;;;;;;26.48;55.13;101740.47;7388799;19;20007;-62
2022/08/11 10:19:35;;;;;;;3.08;1.15;;;;;;;26.55;55.84;101749.28;7385301;19;20027;-62
2022/08/11 10:27:47;;;;;;;5.43;1.50;;;;;;;26.93;53.13;101743.34;7386976;19;20011;-63
2022/08/11 10:36:27;;;;;;;4.88;0.95;;;;;;;26.94;52.39;101737.72;7383181;19;20025;-63
2022/08/11 10:38:56;;;;;;;4.07;1.00;;;;;;;26.96;51.65;101741.03;7386434;19;20395;-63
2022/08/11 10:44:56;;;;;;;6.15;1.20;;;;;;;27.12;50.52;101731.34;7381923;19;20014;-64
2022/08/11 10:47:33;;;;;;;2.28;0.73;;;;;;;27.13;50.45;101741.06;7382532;19;20459;-65
2022/08/11 10:58:51;;;;;;;4.18;0.80;;;;;;;27.35;47.73;101725.84;7381472;19;20022;-66
2022/08/11 11:01:31;;;;;;;2.25;0.93;;;;;;;27.38;47.00;101717.22;7383007;19;20014;-66
2022/08/11 11:04:06;;;;;;;5.68;0.85;;;;;;;27.40;47.39;101711.59;7382504;19;20018;-65
2022/08/11 11:06:51;;;;;;;3.67;0.80;;;;;;;27.44;46.80;101713.56;7384509;19;20006;-66
2022/08/11 11:09:31;;;;;;;5.35;0.80;;;;;;;27.51;46.77;101710.75;7383187;19;20022;-66
2022/08/11 11:18:00;;;;;;;5.72;0.90;;;;;;;27.71;44.48;101721.09;7383045;19;20483;-65
2022/08/11 11:20:47;;;;;;;2.50;0.80;;;;;;;27.78;44.40;101716.34;7381030;19;20624;-63
2022/08/11 11:23:40;;;;;;;4.45;1.00;;;;;;;27.83;43.66;101721.84;7384154;19;20355;-64
2022/08/11 11:26:26;;;;;;;;;;;;;;;27.89;42.45;101710.03;7384627;19;20017;-64
2022/08/11 11:29:12;;;;;;;3.47;0.70;;;;;;;27.89;43.07;101713.56;7383239;19;19926;-65
2022/08/11 11:31:50;;;;;;;3.53;1.00;;;;;;;27.91;43.77;101700.59;7382164;19;20486;-66
2022/08/11 11:34:38;;;;;;;2.95;1.00;;;;;;;27.95;44.32;101706.34;7376873;19;20098;-65
2022/08/11 11:37:21;;;;;;;5.72;1.40;;;;;;;28.02;43.21;101705.13;7384229;19;20422;-64
2022/08/11 11:39:49;;;;;;;6.35;1.60;;;;;;;28.07;42.94;101704.38;7383068;19;20011;-64
2022/08/11 11:42:17;;;;;;;2.80;0.80;;;;;;;28.19;41.38;101702.41;7384286;19;20018;-65
2022/08/11 11:44:46;;;;;;;5.50;1.02;;;;;;;28.22;42.04;101701.94;7385662;19;20021;-65
2022/08/11 11:47:16;;;;;;;4.85;0.90;;;;;;;28.26;41.98;101694.13;7384006;19;20082;-64
2022/08/11 11:49:44;;;;;;;2.83;0.70;;;;;;;28.31;43.03;101696.91;7378496;19;20470;-65
2022/08/11 11:52:17;;;;;;;2.00;0.68;;;;;;;28.38;41.25;101692.97;7384456;19;20007;-65
2022/08/11 11:54:49;;;;;;;5.28;0.82;;;;;;;28.38;41.14;101694.84;7383604;19;20114;-66
2022/08/11 12:03:02;;;;;;;3.70;0.63;;;;;;;28.48;40.70;101690.38;7385465;19;20545;-65
2022/08/11 12:05:32;;;;;;;2.15;0.60;;;;;;;28.53;38.43;101686.09;7383727;19;20300;-66
2022/08/11 12:08:16;;;;;;;3.22;1.05;;;;;;;28.58;38.61;101678.03;7382992;19;20037;-65
2022/08/11 12:13:39;;;;;;;2.25;0.57;;;;;;;28.66;38.79;101678.41;7384471;19;20657;-64
2022/08/11 12:13:42;;;;;;;4.15;0.70;;;;;;;28.66;39.31;101673.00;7385185;19;20027;-66
2022/08/11 12:16:13;;;;;;;4.60;0.70;;;;;;;28.70;39.38;101666.00;7384298;19;20094;-66
2022/08/11 12:19:02;;;;;;;4.60;0.80;;;;;;;28.77;38.62;101663.13;7380941;19;20339;-66
2022/08/11 12:21:29;;;;;;;4.45;0.65;;;;;;;28.84;38.48;101670.00;7383174;19;20605;-66
2022/08/11 12:29:35;;;;;;;1.95;0.50;;;;;;;28.83;36.98;101654.81;7380661;19;20026;-65
2022/08/11 12:32:10;;;;;;;2.25;0.85;;;;;;;28.89;37.81;101653.81;7385082;19;20044;-65
2022/08/11 12:34:37;;;;;;;1.17;0.60;;;;;;;28.91;37.66;101646.22;7380030;19;20030;-64
2022/08/11 12:37:09;;;;;;;2.22;0.57;;;;;;;28.94;38.83;101644.09;7379983;19;20101;-64
2022/08/11 12:45:52;;;;;;;7.53;2.70;;;;;;;28.98;38.67;101635.19;7383884;19;20387;-63
2022/08/11 12:54:57;;;;;;;7.70;0.88;;;;;;;29.08;38.13;101623.63;7380188;19;20034;-67
2022/08/11 13:05:57;;;;;;;2.08;0.60;;;;;;;29.23;36.84;101612.91;7380000;19;20102;-66
2022/08/11 13:08:26;;;;;;;4.13;0.60;;;;;;;29.22;37.41;101603.13;7382944;19;20551;-65
2022/08/11 13:13:43;;;;;;;9.50;0.80;;;;;;;29.30;37.07;101614.34;7380803;19;20010;-64
2022/08/11 13:16:28;;;;;;;2.38;0.50;;;;;;;29.34;36.49;101611.97;7382486;19;20031;-62
2022/08/11 13:18:57;;;;;;;3.15;0.73;;;;;;;29.36;36.44;101606.28;7378380;19;20316;-62
2022/08/11 13:21:26;;;;;;;2.63;0.50;;;;;;;29.40;35.92;101602.81;7382109;19;20023;-63
2022/08/11 13:23:55;;;;;;;2.15;0.60;;;;;;;29.43;36.78;101604.16;7381955;19;20022;-69
2022/08/11 13:26:32;;;;;;;2.97;1.00;;;;;;;29.46;36.58;101598.25;7382808;19;20153;-67
2022/08/11 13:29:24;;;;;;;3.25;0.63;;;;;;;29.49;37.09;101598.53;7380584;19;20022;-66
2022/08/11 13:31:54;;;;;;;3.17;0.70;;;;;;;29.49;36.32;101587.66;7381782;19;20560;-65
2022/08/11 13:34:25;;;;;;;2.55;0.70;;;;;;;29.51;36.02;101590.94;7378754;19;20032;-66
2022/08/11 13:36:55;;;;;;;2.95;0.80;;;;;;;29.55;35.74;101588.53;7385050;19;20498;-65
2022/08/11 13:39:25;;;;;;;5.13;0.55;;;;;;;29.62;35.75;101594.53;7389976;19;20550;-66
2022/08/11 13:41:58;;;;;;;6.90;1.58;;;;;;;29.69;34.57;101589.72;7386435;19;20006;-65
2022/08/11 13:44:28;;;;;;;4.07;1.65;;;;;;;29.73;34.31;101586.22;7385746;19;20014;-65
2022/08/11 13:47:02;;;;;;;5.65;1.25;;;;;;;29.77;36.79;101586.50;7387804;19;20418;-65
2022/08/11 13:49:33;;;;;;;6.18;0.85;;;;;;;29.76;36.94;101579.47;7385612;19;20475;-67
2022/08/11 13:52:02;;;;;;;4.03;0.80;;;;;;;29.77;37.50;101592.75;7390002;19;20383;-67
2022/08/11 13:54:33;;;;;;;5.50;0.95;;;;;;;29.79;37.19;101583.53;7387088;19;20625;-66
2022/08/11 13:57:04;;;;;;;3.90;0.95;;;;;;;29.78;38.00;101582.72;7388197;19;20021;-65
2022/08/11 13:59:35;;;;;;;6.70;1.10;;;;;;;29.77;37.61;101587.31;7387099;19;20034;-65
2022/08/11 14:02:28;;;;;;;6.40;1.02;;;;;;;29.75;37.02;101589.50;7388073;19;20006;-67
2022/08/11 14:05:00;;;;;;;4.07;0.85;;;;;;;29.73;36.91;101588.94;7385070;19;20018;-66
2022/08/11 14:07:44;;;;;;;4.57;0.85;;;;;;;29.71;37.65;101582.13;7389115;19;20086;-65
2022/08/11 14:10:13;;;;;;;3.25;1.40;;;;;;;29.68;37.82;101582.63;7388049;19;20073;-65
2022/08/11 14:15:47;;;;;;;7.07;2.83;;;;;;;29.68;37.10;101580.75;7387553;19;20018;-62
2022/08/11 14:18:20;;;;;;;4.75;1.73;;;;;;;29.67;37.29;101583.72;7387419;19;20271;-63
2022/08/11 14:23:40;;;;;;;7.85;1.85;;;;;;;29.67;37.06;101578.28;7387087;19;20495;-62
2022/08/11 14:26:27;;;;;;;2.67;0.90;;;;;;;29.67;37.03;101570.16;7388636;19;20017;-62
2022/08/11 14:29:19;;;;;;;3.25;0.80;;;;;;;29.65;36.74;101572.31;7385072;19;20078;-72
2022/08/11 14:32:08;;;;;;;7.45;0.80;;;;;;;29.67;36.55;101559.28;7384946;19;20014;-66
2022/08/11 14:34:39;;;;;;;6.28;0.80;;;;;;;29.65;35.88;101575.84;7385170;19;20053;-66
2022/08/11 14:37:17;;;;;;;6.60;0.60;;;;;;;29.67;35.73;101567.44;7387703;19;20015;-66
2022/08/11 14:39:49;;;;;;;7.13;1.00;;;;;;;29.69;36.10;101565.28;7387917;19;20510;-65
2022/08/11 14:48:22;;;;;;;23.10;1.50;;;;;;;29.68;36.17;101556.31;7385683;19;20014;-67
2022/08/11 14:50:49;;;;;;;7.78;0.73;;;;;;;29.66;35.67;101555.75;7381370;19;20435;-66
2022/08/11 14:53:17;;;;;;;3.70;0.90;;;;;;;29.67;35.77;101557.41;7388634;19;20408;-66
2022/08/11 14:56:45;;;;;;;5.35;0.90;;;;;;;29.66;35.40;101549.53;7386983;19;20021;-66
2022/08/11 14:58:42;;;;;;;3.25;1.02;;;;;;;29.65;35.36;101547.91;7384425;19;20489;-66
2022/08/11 15:03:09;;;;;;;9.30;0.70;;;;;;;29.67;34.68;101549.25;7386054;19;20012;-65
2022/08/11 15:03:58;;;;;;;1.58;0.68;;;;;;;29.69;35.87;101538.97;7382924;19;20425;-66
2022/08/11 15:06:46;;;;;;;3.78;1.10;;;;;;;29.66;35.65;101550.31;7385766;19;20021;-66
2022/08/11 15:09:14;;;;;;;6.10;1.00;;;;;;;29.64;35.01;101554.41;7382225;19;20271;-67
2022/08/11 15:17:21;;;;;;;2.72;1.00;;;;;;;29.64;35.73;101540.81;7385416;19;20018;-62
2022/08/11 15:25:29;;;;;;;3.92;1.15;;;;;;;29.58;35.77;101539.16;7384338;19;20018;-63
2022/08/11 15:39:15;;;;;;;4.55;1.58;;;;;;;29.54;35.87;101535.34;7385331;19;20074;-63
2022/08/11 15:47:56;;;;;;;5.57;0.88;;;;;;;29.44;36.51;101536.09;7385916;19;20550;-67
2022/08/11 15:50:33;;;;;;;5.97;0.80;;;;;;;29.46;35.64;101530.41;7379635;19;20676;-67
2022/08/11 15:53:13;;;;;;;4.10;0.82;;;;;;;29.44;36.22;101527.94;7385764;19;20460;-62
2022/08/11 15:55:42;;;;;;;6.47;1.02;;;;;;;29.44;36.36;101536.09;7384490;19;20021;-63
2022/08/11 16:04:12;;;;;;;2.25;0.75;;;;;;;29.40;35.75;101528.72;7380028;19;20372;-68
2022/08/11 16:07:02;;;;;;;3.60;0.98;;;;;;;29.37;35.49;101530.06;7383743;19;20508;-65
2022/08/11 16:09:36;;;;;;;4.85;0.80;;;;;;;29.35;35.74;101523.28;7384722;19;20014;-65
2022/08/11 16:12:22;;;;;;;3.30;0.85;;;;;;;29.31;35.92;101514.81;7385472;19;20145;-66
2022/08/11 16:17:56;;;;;;;4.65;1.67;;;;;;;29.29;36.37;101512.34;7381507;19;20015;-66
2022/08/11 16:20:25;;;;;;;2.28;0.90;;;;;;;29.31;36.04;101517.53;7381859;19;20389;-65
2022/08/11 16:22:56;;;;;;;3.50;0.80;;;;;;;29.27;34.97;101509.06;7385193;19;20033;-65
2022/08/11 16:25:31;;;;;;;4.80;0.57;;;;;;;29.29;35.18;101517.78;7384160;19;20534;-66
2022/08/11 16:28:20;;;;;;;3.13;0.65;;;;;;;29.30;35.26;101513.19;7384805;19;20398;-65
2022/08/11 16:30:49;;;;;;;2.63;0.52;;;;;;;29.31;35.22;101520.25;7381597;19;20491;-65
2022/08/11 16:33:19;;;;;;;3.15;0.70;;;;;;;29.30;34.68;101515.88;7385202;19;20014;-66
2022/08/11 16:38:55;;;;;;;4.53;0.60;;;;;;;29.25;34.71;101513.13;7383019;19;20349;-66
2022/08/11 16:47:10;;;;;;;2.90;1.13;;;;;;;29.21;35.03;101506.56;7384826;19;20030;-66
2022/08/11 16:49:45;;;;;;;4.72;0.82;;;;;;;29.20;35.18;101505.78;7378136;19;20271;-66
2022/08/11 16:52:19;;;;;;;9.43;2.30;;;;;;;29.20;35.55;101508.50;7384512;19;20070;-67
2022/08/11 16:54:46;;;;;;;4.20;1.30;;;;;;;29.17;34.89;101502.75;7382196;19;20014;-65
2022/08/11 17:00:16;;;;;;;3.92;0.70;;;;;;;29.12;35.41;101491.88;7379663;19;20057;-66
2022/08/11 17:14:48;;;;;;;2.00;0.60;;;;;;;29.03;34.93;101488.00;7382384;19;20021;-65
2022/08/11 17:17:37;;;;;;;2.63;0.77;;;;;;;29.01;34.58;101482.84;7382668;19;20491;-64
2022/08/11 17:20:08;;;;;;;3.70;1.08;;;;;;;29.01;34.99;101480.13;7381611;19;20015;-67
2022/08/11 17:25:42;;;;;;;2.63;0.80;;;;;;;28.98;34.45;101475.22;7382251;19;20015;-65
2022/08/11 17:28:30;;;;;;;3.53;1.02;;;;;;;28.97;35.19;101475.47;7383519;19;20352;-66
2022/08/11 17:36:43;;;;;;;5.40;0.70;;;;;;;28.88;35.04;101462.41;7380353;19;20015;-66